createdAt,value
2023-05-16T00:01:48.518Z,24.60
2023-05-16T00:04:15.481Z,24.60
2023-05-16T00:06:42.284Z,24.59
2023-05-16T00:09:09.116Z,24.59
2023-05-16T00:11:35.847Z,24.60
2023-05-16T00:14:02.695Z,24.59
2023-05-16T00:16:30.166Z,24.58
2023-05-16T00:19:01.182Z,24.58
2023-05-16T00:21:28.164Z,24.57
2023-05-16T00:23:54.846Z,24.58
2023-05-16T00:26:21.815Z,24.57
2023-05-16T00:28:49.022Z,24.58
2023-05-16T00:31:15.984Z,24.56
2023-05-16T00:33:42.740Z,24.56
2023-05-16T00:36:09.618Z,24.57
2023-05-16T00:38:36.613Z,24.57
2023-05-16T00:41:04.456Z,24.56
2023-05-16T00:43:31.313Z,24.56
2023-05-16T00:45:58.206Z,24.55
2023-05-16T00:48:25.650Z,24.55
2023-05-16T00:50:53.263Z,24.55
2023-05-16T00:53:22.210Z,24.54
2023-05-16T00:55:48.887Z,24.55
2023-05-16T00:58:16.464Z,24.54
2023-05-16T01:00:44.367Z,24.53
2023-05-16T01:03:12.164Z,24.54
2023-05-16T01:05:38.862Z,24.53
2023-05-16T01:08:06.080Z,24.52
2023-05-16T01:11:01.016Z,24.54
2023-05-16T01:13:43.960Z,24.51
2023-05-16T01:16:22.692Z,24.50
2023-05-16T01:19:06.663Z,24.49
2023-05-16T01:21:50.267Z,24.50
2023-05-16T01:24:33.097Z,24.49
2023-05-16T01:27:00.649Z,24.48
2023-05-16T01:29:27.555Z,24.48
2023-05-16T01:31:54.360Z,24.49
2023-05-16T01:34:21.220Z,24.49
2023-05-16T01:36:52.578Z,24.49
2023-05-16T01:39:38.025Z,24.49
2023-05-16T01:42:09.259Z,24.46
2023-05-16T01:45:12.573Z,24.47
2023-05-16T01:47:44.899Z,24.45
2023-05-16T01:50:20.035Z,24.46
2023-05-16T01:52:53.708Z,24.46
2023-05-16T01:55:49.158Z,24.45
2023-05-16T01:58:20.202Z,24.44
2023-05-16T02:00:46.909Z,24.44
2023-05-16T02:03:13.564Z,24.43
2023-05-16T02:05:40.094Z,24.44
2023-05-16T02:08:06.874Z,24.44
2023-05-16T02:10:33.331Z,24.44
2023-05-16T02:12:59.850Z,24.44
2023-05-16T02:15:26.768Z,24.44
2023-05-16T02:17:53.599Z,24.44
2023-05-16T02:20:20.345Z,24.43
2023-05-16T02:22:47.535Z,24.43
2023-05-16T02:25:15.571Z,24.42
2023-05-16T02:27:43.193Z,24.43
2023-05-16T02:30:12.075Z,24.43
2023-05-16T02:32:39.795Z,24.43
2023-05-16T02:35:07.254Z,24.42
2023-05-16T02:37:33.976Z,24.42
2023-05-16T02:40:00.470Z,24.41
2023-05-16T02:42:30.801Z,24.40
2023-05-16T02:44:57.596Z,24.41
2023-05-16T02:47:24.256Z,24.40
2023-05-16T02:49:52.741Z,24.40
2023-05-16T02:52:19.831Z,24.42
2023-05-16T02:54:51.960Z,24.39
2023-05-16T02:57:26.682Z,24.39
2023-05-16T02:59:53.203Z,24.39
2023-05-16T03:02:19.751Z,24.39
2023-05-16T03:04:46.295Z,24.38
2023-05-16T03:07:12.821Z,24.38
2023-05-16T03:09:39.394Z,24.38
2023-05-16T03:12:07.070Z,24.37
2023-05-16T03:14:34.658Z,24.37
2023-05-16T03:17:03.137Z,24.37
2023-05-16T03:19:29.661Z,24.37
2023-05-16T03:21:56.298Z,24.36
2023-05-16T03:24:23.087Z,24.35
2023-05-16T03:26:49.893Z,24.35
2023-05-16T03:29:19.805Z,24.36
2023-05-16T03:31:46.366Z,24.35
2023-05-16T03:34:12.912Z,24.35
2023-05-16T03:36:41.309Z,24.34
2023-05-16T03:39:08.634Z,24.34
2023-05-16T03:41:35.302Z,24.34
2023-05-16T03:44:01.779Z,24.34
2023-05-16T03:46:28.431Z,24.33
2023-05-16T03:48:54.968Z,24.33
2023-05-16T03:51:21.677Z,24.32
2023-05-16T03:53:48.253Z,24.33
2023-05-16T03:56:14.761Z,24.31
2023-05-16T03:58:41.228Z,24.32
2023-05-16T04:01:07.707Z,24.31
2023-05-16T04:03:34.199Z,24.31
2023-05-16T04:06:00.784Z,24.32
2023-05-16T04:08:27.624Z,24.30
2023-05-16T04:10:54.536Z,24.31
2023-05-16T04:13:21.310Z,24.31
2023-05-16T04:15:47.933Z,24.31
2023-05-16T04:18:14.576Z,24.30
2023-05-16T04:20:42.913Z,24.30
2023-05-16T04:23:11.906Z,24.30
2023-05-16T04:25:38.488Z,24.29
2023-05-16T04:28:05.655Z,24.29
2023-05-16T04:30:32.241Z,24.29
2023-05-16T04:32:59.466Z,24.29
2023-05-16T04:35:28.408Z,24.29
2023-05-16T04:37:55.958Z,24.30
2023-05-16T04:40:22.510Z,24.28
2023-05-16T04:42:49.106Z,24.28
2023-05-16T04:45:15.774Z,24.28
2023-05-16T04:47:42.405Z,24.28
2023-05-16T04:50:09.340Z,24.28
2023-05-16T04:52:35.940Z,24.27
2023-05-16T04:55:02.571Z,24.28
2023-05-16T04:57:29.151Z,24.28
2023-05-16T04:59:55.760Z,24.27
2023-05-16T05:02:22.367Z,24.27
2023-05-16T05:04:49.760Z,24.27
2023-05-16T05:07:16.374Z,24.27
2023-05-16T05:09:43.028Z,24.27
2023-05-16T05:12:09.924Z,24.27
2023-05-16T05:14:36.397Z,24.27
2023-05-16T05:17:02.974Z,24.27
2023-05-16T05:19:29.560Z,24.26
2023-05-16T05:21:56.202Z,24.27
2023-05-16T05:24:22.672Z,24.26
2023-05-16T05:26:49.162Z,24.26
2023-05-16T05:29:16.107Z,24.26
2023-05-16T05:31:42.666Z,24.26
2023-05-16T05:34:09.178Z,24.26
2023-05-16T05:36:35.625Z,24.25
2023-05-16T05:39:02.234Z,24.26
2023-05-16T05:41:28.722Z,24.26
2023-05-16T05:43:55.372Z,24.26
2023-05-16T05:46:22.478Z,24.26
2023-05-16T05:48:49.611Z,24.25
2023-05-16T05:51:16.257Z,24.25
2023-05-16T05:53:42.767Z,24.25
2023-05-16T05:56:09.373Z,24.26
2023-05-16T05:58:36.303Z,24.26
2023-05-16T06:01:02.914Z,24.26
2023-05-16T06:03:29.447Z,24.26
2023-05-16T06:05:56.133Z,24.25
2023-05-16T06:08:22.740Z,24.26
2023-05-16T06:10:49.302Z,24.26
2023-05-16T06:13:15.835Z,24.26
2023-05-16T06:15:42.330Z,24.25
2023-05-16T06:18:08.898Z,24.24
2023-05-16T06:20:35.462Z,24.26
2023-05-16T06:23:01.930Z,24.26
2023-05-16T06:25:28.668Z,24.26
2023-05-16T06:27:55.422Z,24.27
2023-05-16T06:30:21.920Z,24.26
2023-05-16T06:32:48.640Z,24.27
2023-05-16T06:35:15.183Z,24.27
2023-05-16T06:37:43.168Z,24.27
2023-05-16T06:40:10.750Z,24.28
2023-05-16T06:42:37.710Z,24.28
2023-05-16T06:45:05.736Z,24.28
2023-05-16T06:47:32.355Z,24.27
2023-05-16T06:49:58.994Z,24.27
2023-05-16T06:52:25.873Z,24.28
2023-05-16T06:54:52.855Z,24.28
2023-05-16T06:57:19.468Z,24.28
2023-05-16T06:59:46.160Z,24.29
2023-05-16T07:02:12.739Z,24.29
2023-05-16T07:04:40.399Z,24.30
2023-05-16T07:07:08.150Z,24.30
2023-05-16T07:09:35.321Z,24.29
2023-05-16T07:12:01.944Z,24.29
2023-05-16T07:14:28.565Z,24.28
2023-05-16T07:16:55.133Z,24.31
2023-05-16T07:19:21.824Z,24.31
2023-05-16T07:21:48.514Z,24.31
2023-05-16T07:24:15.058Z,24.30
2023-05-16T07:26:41.583Z,24.32
2023-05-16T07:29:08.152Z,24.32
2023-05-16T07:31:34.695Z,24.32
2023-05-16T07:34:01.533Z,24.33
2023-05-16T07:36:28.130Z,24.32
2023-05-16T07:38:54.758Z,24.32
2023-05-16T07:41:21.713Z,24.33
2023-05-16T07:43:48.361Z,24.32
2023-05-16T07:46:14.962Z,24.34
2023-05-16T07:48:41.505Z,24.34
2023-05-16T07:51:08.098Z,24.35
2023-05-16T07:53:34.823Z,24.34
2023-05-16T07:56:01.428Z,24.35
2023-05-16T07:58:28.017Z,24.35
2023-05-16T08:00:54.860Z,24.36
2023-05-16T08:03:21.635Z,24.35
2023-05-16T08:05:49.140Z,24.35
2023-05-16T08:08:15.775Z,24.36
2023-05-16T08:10:42.279Z,24.36
2023-05-16T08:13:09.688Z,24.36
2023-05-16T08:15:37.048Z,24.36
2023-05-16T08:18:03.804Z,24.36
2023-05-16T08:20:30.409Z,24.37
2023-05-16T08:22:57.157Z,24.37
2023-05-16T08:25:23.629Z,24.38
2023-05-16T08:27:51.186Z,24.37
2023-05-16T08:30:17.873Z,24.37
2023-05-16T08:32:44.514Z,24.38
2023-05-16T08:35:11.452Z,24.39
2023-05-16T08:37:38.060Z,24.39
2023-05-16T08:40:08.305Z,24.38
2023-05-16T08:42:35.404Z,24.40
2023-05-16T08:45:02.624Z,24.39
2023-05-16T08:47:32.180Z,24.41
2023-05-16T08:50:01.131Z,24.40
2023-05-16T08:52:31.226Z,24.39
2023-05-16T08:57:33.460Z,24.40
2023-05-16T09:00:00.758Z,24.40
2023-05-16T09:02:30.419Z,24.41
2023-05-16T09:04:58.088Z,24.41
2023-05-16T09:07:24.956Z,24.40
2023-05-16T09:09:51.457Z,24.40
2023-05-16T09:12:17.988Z,24.41
2023-05-16T09:14:45.275Z,24.40
2023-05-16T09:17:12.874Z,24.42
2023-05-16T09:19:41.376Z,24.41
2023-05-16T09:22:15.261Z,24.42
2023-05-16T09:24:43.445Z,24.42
2023-05-16T09:27:14.648Z,24.42
2023-05-16T09:29:42.213Z,24.42
2023-05-16T09:32:11.415Z,24.42
2023-05-16T09:34:40.083Z,24.42
2023-05-16T09:37:06.875Z,24.42
2023-05-16T09:39:33.372Z,24.41
2023-05-16T09:41:59.896Z,24.42
2023-05-16T09:44:26.470Z,24.41
2023-05-16T09:46:55.511Z,24.42
2023-05-16T09:49:22.430Z,24.41
2023-05-16T09:51:49.095Z,24.42
2023-05-16T09:54:15.668Z,24.42
2023-05-16T09:56:50.611Z,24.43
2023-05-16T09:59:17.108Z,24.37
2023-05-16T10:01:44.147Z,24.36
2023-05-16T10:04:14.225Z,24.38
2023-05-16T10:06:42.609Z,24.39
2023-05-16T10:09:13.137Z,24.40
2023-05-16T10:11:43.400Z,24.40
2023-05-16T10:14:11.784Z,24.40
2023-05-16T10:16:43.751Z,24.41
2023-05-16T10:19:11.658Z,24.40
2023-05-16T10:21:40.592Z,24.41
2023-05-16T10:24:11.756Z,24.42
2023-05-16T10:26:38.305Z,24.42
2023-05-16T10:29:05.761Z,24.41
2023-05-16T10:31:32.861Z,24.41
2023-05-16T10:34:00.290Z,24.42
2023-05-16T10:36:27.006Z,24.42
2023-05-16T10:38:54.218Z,24.41
2023-05-16T10:41:22.045Z,24.42
2023-05-16T10:43:59.029Z,24.42
2023-05-16T10:46:28.078Z,24.42
2023-05-16T10:48:56.521Z,24.42
2023-05-16T10:51:38.785Z,24.42
2023-05-16T10:54:11.976Z,24.42
2023-05-16T10:56:38.931Z,24.40
2023-05-16T10:59:23.090Z,24.42
2023-05-16T11:01:53.784Z,24.42
2023-05-16T11:04:20.380Z,24.41
2023-05-16T11:06:51.851Z,24.42
2023-05-16T11:09:26.159Z,24.42
2023-05-16T11:12:01.116Z,24.43
2023-05-16T11:14:43.536Z,24.43
2023-05-16T11:17:15.845Z,24.42
2023-05-16T11:19:51.647Z,24.43
2023-05-16T11:22:21.780Z,24.41
2023-05-16T11:24:52.538Z,24.43
2023-05-16T11:27:25.732Z,24.43
2023-05-16T11:29:54.329Z,24.44
2023-05-16T11:32:24.735Z,24.43
2023-05-16T11:34:52.390Z,24.46
2023-05-16T11:37:20.208Z,24.46
2023-05-16T11:39:47.060Z,24.47
2023-05-16T11:42:13.786Z,24.48
2023-05-16T11:44:41.237Z,24.48
2023-05-16T11:47:08.690Z,24.50
2023-05-16T11:49:35.843Z,24.51
2023-05-16T11:52:03.640Z,24.51
2023-05-16T11:54:31.608Z,24.52
2023-05-16T11:56:59.091Z,24.52
2023-05-16T11:59:26.510Z,24.53
2023-05-16T12:01:54.224Z,24.52
2023-05-16T12:04:21.075Z,24.53
2023-05-16T12:06:59.548Z,24.53
2023-05-16T12:09:26.504Z,24.51
2023-05-16T12:11:53.417Z,24.51
2023-05-16T12:14:20.635Z,24.51
2023-05-16T12:16:49.265Z,24.50
2023-05-16T12:19:16.473Z,24.50
2023-05-16T12:21:43.174Z,24.50
2023-05-16T12:24:12.155Z,24.48
2023-05-16T12:26:40.826Z,24.50
2023-05-16T12:29:08.040Z,24.50
2023-05-16T12:31:40.826Z,24.50
2023-05-16T12:34:23.530Z,24.50
2023-05-16T12:36:53.933Z,24.49
2023-05-16T12:39:21.173Z,24.48
2023-05-16T12:41:49.113Z,24.48
2023-05-16T12:44:17.766Z,24.49
2023-05-16T12:46:46.249Z,24.49
2023-05-16T12:49:13.750Z,24.48
2023-05-16T12:51:41.039Z,24.48
2023-05-16T12:54:12.207Z,24.49
2023-05-16T12:56:40.117Z,24.49
2023-05-16T12:59:07.872Z,24.47
2023-05-16T13:01:36.305Z,24.48
2023-05-16T13:04:03.326Z,24.48
2023-05-16T13:06:39.839Z,24.48
2023-05-16T13:09:16.449Z,24.47
2023-05-16T13:11:43.235Z,24.46
2023-05-16T13:14:10.074Z,24.47
2023-05-16T13:16:36.995Z,24.46
2023-05-16T13:19:05.301Z,24.46
2023-05-16T13:21:32.353Z,24.46
2023-05-16T13:23:59.263Z,24.47
2023-05-16T13:26:26.616Z,24.46
2023-05-16T13:28:54.991Z,24.45
2023-05-16T13:31:24.715Z,24.45
2023-05-16T13:33:52.053Z,24.44
2023-05-16T13:36:18.610Z,24.44
2023-05-16T13:38:45.148Z,24.44
2023-05-16T13:41:11.660Z,24.44
2023-05-16T13:43:38.236Z,24.44
2023-05-16T13:46:04.874Z,24.44
2023-05-16T13:48:31.480Z,24.43
2023-05-16T13:50:58.006Z,24.44
2023-05-16T13:53:24.601Z,24.43
2023-05-16T13:55:51.109Z,24.44
2023-05-16T13:58:17.769Z,24.43
2023-05-16T14:00:46.023Z,24.43
2023-05-16T14:03:13.022Z,24.43
2023-05-16T14:05:39.925Z,24.44
2023-05-16T14:08:06.706Z,24.43
2023-05-16T14:10:33.261Z,24.43
2023-05-16T14:12:59.805Z,24.43
2023-05-16T14:15:26.790Z,24.43
2023-05-16T14:17:53.691Z,24.42
2023-05-16T14:20:20.381Z,24.43
2023-05-16T14:22:46.916Z,24.42
2023-05-16T14:25:13.434Z,24.42
2023-05-16T14:27:39.949Z,24.42
2023-05-16T14:30:08.067Z,24.41
2023-05-16T14:32:34.828Z,24.41
2023-05-16T14:35:01.368Z,24.40
2023-05-16T14:37:27.929Z,24.40
2023-05-16T14:39:55.152Z,24.40
2023-05-16T14:42:21.769Z,24.40
2023-05-16T14:44:48.543Z,24.40
2023-05-16T14:47:15.437Z,24.40
2023-05-16T14:49:42.158Z,24.38
2023-05-16T14:52:08.812Z,24.39
2023-05-16T14:54:35.544Z,24.38
2023-05-16T14:57:03.907Z,24.38
2023-05-16T14:59:30.684Z,24.37
2023-05-16T15:01:57.308Z,24.37
2023-05-16T15:04:24.154Z,24.37
2023-05-16T15:06:50.808Z,24.37
2023-05-16T15:09:19.057Z,24.36
2023-05-16T15:11:46.124Z,24.37
2023-05-16T15:14:12.758Z,24.35
2023-05-16T15:16:39.420Z,24.36
2023-05-16T15:19:06.220Z,24.35
2023-05-16T15:21:32.856Z,24.34
2023-05-16T15:23:59.729Z,24.34
2023-05-16T15:26:26.587Z,24.34
2023-05-16T15:28:55.520Z,24.34
2023-05-16T15:31:22.698Z,24.34
2023-05-16T15:33:49.269Z,24.34
2023-05-16T15:36:15.788Z,24.33
2023-05-16T15:38:45.421Z,24.33
2023-05-16T15:41:22.346Z,24.32
2023-05-16T15:43:58.514Z,24.32
2023-05-16T15:46:25.121Z,24.31
2023-05-16T15:48:52.539Z,24.32
2023-05-16T15:51:19.416Z,24.31
2023-05-16T15:53:46.008Z,24.32
2023-05-16T15:56:12.588Z,24.32
2023-05-16T15:58:39.075Z,24.31
2023-05-16T16:01:05.698Z,24.31
2023-05-16T16:03:32.347Z,24.30
2023-05-16T16:05:59.052Z,24.30
2023-05-16T16:08:25.698Z,24.30
2023-05-16T16:10:52.294Z,24.30
2023-05-16T16:13:18.944Z,24.29
2023-05-16T16:15:45.643Z,24.29
2023-05-16T16:18:13.822Z,24.30
2023-05-16T16:20:40.704Z,24.29
2023-05-16T16:23:07.545Z,24.28
2023-05-16T16:25:34.228Z,24.28
2023-05-16T16:28:00.958Z,24.29
2023-05-16T16:30:27.905Z,24.26
2023-05-16T16:32:54.521Z,24.28
2023-05-16T16:35:22.461Z,24.27
2023-05-16T16:38:02.101Z,24.27
2023-05-16T16:40:32.665Z,24.27
2023-05-16T16:42:59.217Z,24.27
2023-05-16T16:45:27.019Z,24.26
2023-05-16T16:47:54.047Z,24.26
2023-05-16T16:50:20.685Z,24.26
2023-05-16T16:52:47.760Z,24.25
2023-05-16T16:55:14.933Z,24.25
2023-05-16T16:57:42.577Z,24.26
2023-05-16T17:00:14.246Z,24.25
2023-05-16T17:02:40.967Z,24.24
2023-05-16T17:05:08.751Z,24.24
2023-05-16T17:07:35.291Z,24.23
2023-05-16T17:10:04.691Z,24.24
2023-05-16T17:12:34.605Z,24.24
2023-05-16T17:15:01.882Z,24.24
2023-05-16T17:17:28.540Z,24.23
2023-05-16T17:19:55.089Z,24.22
2023-05-16T17:22:22.199Z,24.23
2023-05-16T17:24:48.818Z,24.23
2023-05-16T17:27:15.712Z,24.22
2023-05-16T17:29:42.549Z,24.22
2023-05-16T17:32:09.216Z,24.23
2023-05-16T17:34:35.941Z,24.22
2023-05-16T17:37:03.276Z,24.22
2023-05-16T17:39:31.423Z,24.22
2023-05-16T17:41:57.973Z,24.21
2023-05-16T17:44:24.664Z,24.21
2023-05-16T17:46:52.098Z,24.21
2023-05-16T17:49:18.645Z,24.22
2023-05-16T17:51:56.655Z,24.23
2023-05-16T17:54:24.089Z,24.21
2023-05-16T17:56:51.086Z,24.21
2023-05-16T17:59:17.924Z,24.21
2023-05-16T18:01:44.580Z,24.20
2023-05-16T18:04:11.688Z,24.20
2023-05-16T18:06:38.395Z,24.21
2023-05-16T18:09:10.302Z,24.21
2023-05-16T18:11:40.266Z,24.20
2023-05-16T18:14:09.277Z,24.20
2023-05-16T18:16:36.196Z,24.19
2023-05-16T18:19:04.831Z,24.19
2023-05-16T18:21:32.370Z,24.20
2023-05-16T18:23:59.562Z,24.19
2023-05-16T18:26:28.627Z,24.19
2023-05-16T18:28:55.735Z,24.18
2023-05-16T18:31:22.459Z,24.19
2023-05-16T18:33:49.770Z,24.18
2023-05-16T18:36:16.302Z,24.19
2023-05-16T18:38:42.906Z,24.19
2023-05-16T18:41:09.602Z,24.18
2023-05-16T18:43:36.769Z,24.19
2023-05-16T18:46:04.145Z,24.19
2023-05-16T18:48:30.905Z,24.18
2023-05-16T18:50:57.704Z,24.18
2023-05-16T18:53:24.239Z,24.18
2023-05-16T18:55:50.912Z,24.17
2023-05-16T18:58:17.432Z,24.17
2023-05-16T19:00:43.955Z,24.17
2023-05-16T19:03:10.649Z,24.17
2023-05-16T19:05:37.429Z,24.16
2023-05-16T19:08:04.317Z,24.16
2023-05-16T19:10:32.181Z,24.16
2023-05-16T19:13:06.806Z,24.15
2023-05-16T19:15:37.141Z,24.16
2023-05-16T19:18:05.124Z,24.14
2023-05-16T19:20:33.497Z,24.14
2023-05-16T19:23:00.627Z,24.15
2023-05-16T19:25:27.964Z,24.15
2023-05-16T19:27:54.739Z,24.15
2023-05-16T19:30:21.593Z,24.14
2023-05-16T19:32:48.144Z,24.14
2023-05-16T19:35:14.862Z,24.14
2023-05-16T19:37:41.412Z,24.13
2023-05-16T19:40:08.479Z,24.14
2023-05-16T19:42:35.155Z,24.14
2023-05-16T19:45:01.884Z,24.13
2023-05-16T19:47:28.452Z,24.13
2023-05-16T19:49:55.385Z,24.13
2023-05-16T19:52:21.976Z,24.13
2023-05-16T19:54:48.525Z,24.12
2023-05-16T19:57:15.044Z,24.12
2023-05-16T19:59:41.630Z,24.12
2023-05-16T20:02:08.297Z,24.12
2023-05-16T20:04:34.888Z,24.11
2023-05-16T20:07:01.406Z,24.11
2023-05-16T20:09:28.568Z,24.11
2023-05-16T20:11:57.401Z,24.11
2023-05-16T20:14:24.251Z,24.11
2023-05-16T20:16:51.434Z,24.10
2023-05-16T20:19:19.211Z,24.10
2023-05-16T20:21:46.224Z,24.10
2023-05-16T20:24:13.631Z,24.09
2023-05-16T20:26:40.469Z,24.09
2023-05-16T20:29:06.967Z,24.09
2023-05-16T20:31:33.637Z,24.09
2023-05-16T20:34:00.654Z,24.09
2023-05-16T20:36:27.370Z,24.09
2023-05-16T20:38:53.899Z,24.07
2023-05-16T20:41:20.899Z,24.08
2023-05-16T20:43:49.655Z,24.08
2023-05-16T20:46:16.258Z,24.07
2023-05-16T20:48:42.776Z,24.08
2023-05-16T20:51:12.426Z,24.07
2023-05-16T20:53:38.938Z,24.07
2023-05-16T20:56:05.650Z,24.07
2023-05-16T20:58:32.187Z,24.08
2023-05-16T21:00:58.698Z,24.06
2023-05-16T21:03:25.307Z,24.06
2023-05-16T21:05:51.978Z,24.05
2023-05-16T21:08:18.605Z,24.06
2023-05-16T21:10:45.097Z,24.06
2023-05-16T21:13:11.846Z,24.06
2023-05-16T21:15:39.570Z,24.06
2023-05-16T21:18:06.621Z,24.05
2023-05-16T21:20:33.153Z,24.05
2023-05-16T21:22:59.822Z,24.05
2023-05-16T21:25:26.529Z,24.06
2023-05-16T21:27:53.205Z,24.04
2023-05-16T21:30:19.770Z,24.03
2023-05-16T21:32:46.277Z,24.04
2023-05-16T21:35:12.835Z,24.04
2023-05-16T21:37:39.378Z,24.02
2023-05-16T21:40:09.080Z,24.04
2023-05-16T21:42:36.431Z,24.03
2023-05-16T21:45:03.099Z,24.02
2023-05-16T21:47:29.655Z,24.03
2023-05-16T21:49:56.196Z,24.02
2023-05-16T21:52:22.734Z,24.01
2023-05-16T21:54:52.004Z,24.02
2023-05-16T21:57:19.555Z,24.02
2023-05-16T21:59:46.220Z,24.02
2023-05-16T22:02:12.788Z,24.02
2023-05-16T22:04:39.402Z,24.00
2023-05-16T22:07:05.988Z,24.00
2023-05-16T22:09:32.631Z,24.00
2023-05-16T22:11:59.227Z,24.00
2023-05-16T22:14:25.745Z,24.00
2023-05-16T22:16:52.288Z,24.00
2023-05-16T22:19:18.891Z,24.00
2023-05-16T22:21:45.504Z,23.99
2023-05-16T22:24:12.019Z,23.99
2023-05-16T22:26:38.510Z,23.98
2023-05-16T22:29:05.039Z,23.98
2023-05-16T22:31:31.738Z,23.99
2023-05-16T22:33:58.339Z,23.98
2023-05-16T22:36:24.854Z,23.97
2023-05-16T22:38:51.483Z,23.98
2023-05-16T22:41:18.069Z,23.98
2023-05-16T22:43:44.612Z,23.98
2023-05-16T22:46:11.249Z,23.97
2023-05-16T22:48:37.812Z,23.97
2023-05-16T22:51:04.562Z,23.96
2023-05-16T22:53:31.146Z,23.96
2023-05-16T22:55:57.670Z,23.96
2023-05-16T22:58:24.273Z,23.96
2023-05-16T23:00:50.829Z,23.96
2023-05-16T23:03:17.532Z,23.95
2023-05-16T23:05:44.167Z,23.95
2023-05-16T23:08:10.862Z,23.95
2023-05-16T23:10:37.515Z,23.94
2023-05-16T23:13:03.992Z,23.94
2023-05-16T23:15:30.914Z,23.94
2023-05-16T23:17:57.700Z,23.94
2023-05-16T23:20:24.457Z,23.93
2023-05-16T23:22:51.011Z,23.93
2023-05-16T23:25:17.680Z,23.93
2023-05-16T23:27:44.174Z,23.92
2023-05-16T23:30:11.399Z,23.92
2023-05-16T23:32:38.063Z,23.92
2023-05-16T23:35:05.118Z,23.91
2023-05-16T23:37:32.108Z,23.92
2023-05-16T23:39:58.607Z,23.92
2023-05-16T23:42:25.343Z,23.91
2023-05-16T23:44:51.857Z,23.91
2023-05-16T23:47:18.416Z,23.90
2023-05-16T23:49:44.951Z,23.89
2023-05-16T23:52:11.587Z,23.89
2023-05-16T23:54:38.089Z,23.89
2023-05-16T23:57:04.995Z,23.89
2023-05-16T23:59:31.514Z,23.88
